Time;durP1;ratioP1;P1;durP2;ratioP2;P2;SDS_P1;SDS_P2;PMS_P1;PMS_P2;Temp;Humidity;BMP_temperature;BMP_pressure;BME280_temperature;BME280_humidity;BME280_pressure;Samples;Min_cycle;Max_cycle;Signal;HPM_P1;HPM_P2
2022/04/04 00:00:20;;;;;;;16.30;7.60;;;;;;;-0.35;100.00;100949.13;5047450;28;20197;-57
2022/04/04 00:02:45;;;;;;;9.80;7.43;;;;;;;-0.14;100.00;100980.16;5047900;28;20032;-57
2022/04/04 00:05:11;;;;;;;10.50;7.43;;;;;;;-0.58;100.00;100896.59;5047202;28;20028;-57
2022/04/04 00:07:37;;;;;;;12.68;7.13;;;;;;;-0.08;100.00;100969.84;5046797;28;20032;-57
2022/04/04 00:10:03;;;;;;;10.10;6.95;;;;;;;-0.09;100.00;100968.13;5047040;28;20053;-57
2022/04/04 00:12:29;;;;;;;11.00;7.60;;;;;;;-0.10;100.00;100961.22;5046752;28;20024;-57
2022/04/04 00:14:54;;;;;;;12.57;7.30;;;;;;;-0.23;100.00;100928.47;5047388;28;20130;-57
2022/04/04 00:17:20;;;;;;;12.40;7.35;;;;;;;-0.05;100.00;100962.09;5049390;28;20034;-57
2022/04/04 00:19:45;;;;;;;10.48;6.88;;;;;;;-0.05;100.00;100945.75;5046562;28;20909;-57
2022/04/04 00:22:10;;;;;;;11.15;7.10;;;;;;;-0.26;100.00;100918.16;5047724;28;20099;-57
2022/04/04 00:24:36;;;;;;;8.68;6.78;;;;;;;-0.07;100.00;100950.88;5028995;28;20036;-56
2022/04/04 00:27:02;;;;;;;11.60;7.82;;;;;;;-0.08;100.00;100941.44;5046003;28;20105;-57
2022/04/04 00:29:27;;;;;;;9.95;7.57;;;;;;;-0.37;100.00;100893.19;5047997;28;20035;-57
2022/04/04 00:31:53;;;;;;;10.75;8.02;;;;;;;-0.06;100.00;100942.28;5046141;28;20028;-57
2022/04/04 00:34:19;;;;;;;10.75;7.75;;;;;;;-0.60;100.00;100854.41;5045436;28;20032;-58
2022/04/04 00:36:45;;;;;;;11.60;7.97;;;;;;;-0.15;100.00;100931.94;5027833;28;20035;-57
2022/04/04 00:39:11;;;;;;;9.85;7.57;;;;;;;-0.10;100.00;100932.81;5046241;28;20024;-57
2022/04/04 00:41:36;;;;;;;11.20;7.80;;;;;;;-0.12;100.00;100934.53;5046296;28;20157;-57
2022/04/04 00:44:02;;;;;;;13.73;7.82;;;;;;;-0.15;100.00;100913.88;5045482;28;20066;-56
2022/04/04 00:46:27;;;;;;;12.40;7.88;;;;;;;-0.02;100.00;100931.13;5045443;28;20039;-55
2022/04/04 00:48:53;;;;;;;10.63;7.10;;;;;;;0.05;100.00;100944.03;5046225;28;20028;-57
2022/04/04 00:51:19;;;;;;;17.90;7.10;;;;;;;0.04;100.00;100917.31;5045362;28;20878;-57
2022/04/04 00:53:44;;;;;;;16.77;8.38;;;;;;;-0.14;100.00;100887.22;5045059;28;20032;-57
2022/04/04 00:56:11;;;;;;;14.57;8.32;;;;;;;0.11;100.00;100924.22;5045383;28;20027;-57
2022/04/04 00:58:40;;;;;;;14.90;8.25;;;;;;;0.03;100.00;100909.59;5027765;28;20031;-58
2022/04/04 01:01:06;;;;;;;16.35;7.50;;;;;;;0.06;100.00;100925.09;5045471;28;20042;-58
2022/04/04 01:03:32;;;;;;;11.05;7.38;;;;;;;-0.13;100.00;100894.06;5046846;28;20042;-57
2022/04/04 01:05:59;;;;;;;8.13;6.95;;;;;;;-0.24;100.00;100879.44;5044797;28;20039;-56
2022/04/04 01:08:26;;;;;;;12.05;8.10;;;;;;;0.00;100.00;100911.28;5045373;28;20833;-57
2022/04/04 01:10:51;;;;;;;14.88;7.68;;;;;;;0.02;100.00;100910.44;5046552;28;20028;-56
2022/04/04 01:13:17;;;;;;;10.65;8.02;;;;;;;-0.01;100.00;100894.09;5044816;28;20032;-56
2022/04/04 01:15:43;;;;;;;14.25;7.68;;;;;;;0.07;100.00;100904.41;5046466;28;20063;-57
2022/04/04 01:18:09;;;;;;;10.40;7.78;;;;;;;0.07;100.00;100901.00;5047007;28;20085;-56
2022/04/04 01:20:35;;;;;;;11.32;8.90;;;;;;;0.06;100.00;100905.28;5045987;28;20419;-56
2022/04/04 01:23:01;;;;;;;12.32;7.38;;;;;;;0.07;100.00;100891.50;5046267;28;21050;-57
2022/04/04 01:25:28;;;;;;;11.55;7.40;;;;;;;-0.06;100.00;100858.78;5045292;28;20024;-57
2022/04/04 01:27:55;;;;;;;11.77;7.90;;;;;;;0.18;100.00;100883.75;5045115;28;20034;-57
2022/04/04 01:30:21;;;;;;;10.27;7.72;;;;;;;0.16;100.00;100872.56;5045237;28;20032;-56
2022/04/04 01:32:49;;;;;;;13.00;7.53;;;;;;;0.15;100.00;100878.59;5045912;28;20024;-57
2022/04/04 01:35:15;;;;;;;12.55;8.10;;;;;;;0.13;100.00;100885.50;5045761;28;20024;-56
2022/04/04 01:37:40;;;;;;;13.23;7.43;;;;;;;0.15;100.00;100878.59;5045623;28;20078;-57
2022/04/04 01:40:06;;;;;;;10.80;7.93;;;;;;;0.23;100.00;100876.88;5045640;28;20862;-56
2022/04/04 01:42:32;;;;;;;11.13;7.82;;;;;;;0.17;100.00;100864.81;5045207;28;20036;-57
2022/04/04 01:44:58;;;;;;;9.27;7.30;;;;;;;0.22;100.00;100859.63;5045109;28;20040;-57
2022/04/04 01:47:23;;;;;;;15.25;7.88;;;;;;;0.19;100.00;100862.22;5048644;28;20032;-56
2022/04/04 01:49:48;;;;;;;10.40;7.65;;;;;;;0.13;100.00;100846.75;5051084;28;20024;-57
2022/04/04 01:52:14;;;;;;;11.07;7.47;;;;;;;0.15;100.00;100853.63;5048832;28;20024;-56
2022/04/04 01:54:39;;;;;;;10.20;8.15;;;;;;;0.19;100.00;100849.31;5048548;28;20034;-57
2022/04/04 01:57:05;;;;;;;9.20;7.13;;;;;;;0.22;100.00;100844.13;5048405;28;20020;-57
2022/04/04 01:59:31;;;;;;;10.95;8.20;;;;;;;0.19;100.00;100845.00;5048270;28;20814;-57
2022/04/04 02:01:57;;;;;;;12.35;7.63;;;;;;;0.02;100.00;100809.72;5048424;28;20086;-57
2022/04/04 02:04:23;;;;;;;11.25;7.93;;;;;;;0.15;100.00;100829.50;5048925;28;20024;-56
2022/04/04 02:06:48;;;;;;;13.27;8.13;;;;;;;0.17;100.00;100825.22;5048372;28;20034;-56
2022/04/04 02:09:14;;;;;;;12.50;7.93;;;;;;;0.12;100.00;100826.94;5049502;28;20765;-57
2022/04/04 02:11:39;;;;;;;11.32;7.78;;;;;;;0.08;100.00;100826.06;5048555;28;20802;-57
2022/04/04 02:14:04;;;;;;;11.75;8.10;;;;;;;0.08;100.00;100817.44;5049285;28;20035;-57
2022/04/04 02:16:30;;;;;;;11.50;8.15;;;;;;;0.03;100.00;100814.91;5048416;28;20135;-57
2022/04/04 02:18:55;;;;;;;10.48;7.70;;;;;;;0.08;100.00;100817.44;5049078;28;20079;-57
2022/04/04 02:21:21;;;;;;;11.75;7.80;;;;;;;0.13;100.00;100810.56;5049825;28;20843;-57
2022/04/04 02:23:46;;;;;;;13.07;8.65;;;;;;;0.09;100.00;100801.97;5048341;28;20042;-57
2022/04/04 02:26:11;;;;;;;14.40;9.13;;;;;;;0.16;100.00;100803.69;5047815;28;20143;-56
2022/04/04 02:28:37;;;;;;;11.75;9.10;;;;;;;0.12;100.00;100795.94;5048015;28;20142;-56
2022/04/04 02:31:03;;;;;;;11.60;8.05;;;;;;;0.21;100.00;100793.31;5048692;28;20035;-57
2022/04/04 02:33:28;;;;;;;13.05;8.43;;;;;;;-0.30;100.00;100714.22;5048703;28;20861;-57
2022/04/04 02:35:54;;;;;;;14.07;8.60;;;;;;;0.21;100.00;100791.59;5049209;28;20047;-56
2022/04/04 02:38:22;;;;;;;14.32;9.57;;;;;;;0.13;100.00;100759.78;5048461;28;20032;-57
2022/04/04 02:40:48;;;;;;;12.40;8.63;;;;;;;0.27;100.00;100770.09;5048250;28;20032;-57
2022/04/04 02:43:13;;;;;;;16.08;8.23;;;;;;;0.34;100.00;100777.78;5048863;28;20098;-56
2022/04/04 02:45:39;;;;;;;16.70;9.20;;;;;;;0.39;100.00;100783.81;5048454;28;20028;-56
2022/04/04 02:48:05;;;;;;;14.25;9.18;;;;;;;0.26;100.00;100764.06;5048348;28;20028;-57
2022/04/04 02:50:31;;;;;;;12.48;8.75;;;;;;;0.32;100.00;100770.91;5049749;28;20127;-57
2022/04/04 02:52:56;;;;;;;14.35;9.07;;;;;;;0.32;100.00;100765.75;5047720;28;20031;-57
2022/04/04 02:58:06;;;;;;;11.85;8.98;;;;;;;0.26;100.00;100751.13;5048887;28;20924;-56
2022/04/04 03:00:31;;;;;;;12.80;9.23;;;;;;;0.33;100.00;100749.38;5048547;28;20024;-57
2022/04/04 03:02:57;;;;;;;12.88;9.35;;;;;;;0.39;100.00;100745.06;5048858;28;20213;-57
2022/04/04 03:05:23;;;;;;;16.75;9.70;;;;;;;0.45;100.00;100744.16;5047026;28;20052;-56
2022/04/04 03:07:49;;;;;;;16.88;9.43;;;;;;;0.52;100.00;100746.72;5047347;28;20885;-57
2022/04/04 03:10:15;;;;;;;13.15;8.65;;;;;;;0.51;100.00;100731.22;5047050;28;20032;-56
2022/04/04 03:12:48;;;;;;;13.75;9.23;;;;;;;0.44;100.00;100724.38;5049396;28;20024;-57
2022/04/04 03:15:17;;;;;;;18.35;9.68;;;;;;;0.49;100.00;100725.19;5047305;28;20164;-56
2022/04/04 03:17:44;;;;;;;15.07;9.00;;;;;;;0.52;100.00;100720.00;5030395;28;20210;-56
2022/04/04 03:20:12;;;;;;;12.88;8.25;;;;;;;0.52;100.00;100720.00;5048416;28;20052;-57
2022/04/04 03:22:38;;;;;;;13.98;9.38;;;;;;;0.55;100.00;100701.91;5048015;28;20163;-54
2022/04/04 03:25:05;;;;;;;16.75;10.13;;;;;;;0.62;100.00;100706.19;5047254;28;20024;-56
2022/04/04 03:27:30;;;;;;;15.75;9.82;;;;;;;0.70;100.00;100703.56;5047082;28;20039;-57
2022/04/04 03:29:56;;;;;;;17.15;10.02;;;;;;;0.70;100.00;100694.09;5047087;28;20024;-57
2022/04/04 03:32:21;;;;;;;16.98;10.02;;;;;;;0.69;100.00;100676.84;5048199;28;20083;-57
2022/04/04 03:34:47;;;;;;;16.88;9.63;;;;;;;0.58;100.00;100657.94;5047325;28;20038;-56
2022/04/04 03:37:12;;;;;;;18.85;10.90;;;;;;;0.84;100.00;100681.06;5046671;28;20934;-56
2022/04/04 03:39:38;;;;;;;19.35;10.77;;;;;;;0.77;100.00;100662.16;5047101;28;20133;-56
2022/04/04 03:42:03;;;;;;;15.30;10.00;;;;;;;0.65;100.00;100630.31;5046953;28;21038;-56
2022/04/04 03:44:29;;;;;;;17.30;10.43;;;;;;;0.84;100.00;100661.25;5046982;28;20897;-57
2022/04/04 03:46:54;;;;;;;18.92;11.43;;;;;;;0.87;100.00;100666.41;5047433;28;20023;-57
2022/04/04 03:49:20;;;;;;;15.95;9.70;;;;;;;0.90;100.00;100648.25;5047049;28;20028;-56
2022/04/04 03:51:45;;;;;;;19.92;10.63;;;;;;;0.93;100.00;100650.84;5045560;28;20024;-57
2022/04/04 03:54:12;;;;;;;14.10;9.77;;;;;;;0.75;100.00;100625.09;5046589;28;20035;-57
2022/04/04 03:56:38;;;;;;;18.00;10.00;;;;;;;0.86;100.00;100627.59;5046509;28;20959;-58
2022/04/04 03:59:04;;;;;;;12.88;9.05;;;;;;;0.91;100.00;100637.03;5048355;28;20051;-57
2022/04/04 04:01:30;;;;;;;16.67;9.80;;;;;;;0.95;100.00;100638.72;5046394;28;20340;-57
2022/04/04 04:03:56;;;;;;;17.63;9.25;;;;;;;0.98;100.00;100628.34;5045194;28;20027;-57
2022/04/04 04:06:21;;;;;;;18.85;9.77;;;;;;;1.03;100.00;100631.78;5045985;28;20020;-56
2022/04/04 04:08:47;;;;;;;16.85;9.55;;;;;;;1.11;100.00;100638.63;5045520;28;20932;-57
2022/04/04 04:11:14;;;;;;;14.75;8.52;;;;;;;1.13;100.00;100618.75;5046250;28;20028;-57
2022/04/04 04:13:41;;;;;;;16.42;9.00;;;;;;;1.06;100.00;100607.59;5046058;28;20024;-57
2022/04/04 04:16:09;;;;;;;13.63;9.38;;;;;;;1.16;100.00;100621.31;5046076;28;20128;-58
2022/04/04 04:18:37;;;;;;;16.05;9.95;;;;;;;1.14;100.00;100612.72;5045709;28;20028;-56
2022/04/04 04:21:04;;;;;;;17.60;9.90;;;;;;;1.16;100.00;100606.66;5045546;28;20059;-57
2022/04/04 04:23:29;;;;;;;14.40;9.70;;;;;;;1.05;100.00;100585.19;5045344;28;20039;-57
2022/04/04 04:25:55;;;;;;;14.63;8.30;;;;;;;1.20;100.00;100597.16;5045338;28;20055;-57
2022/04/04 04:28:20;;;;;;;13.52;8.50;;;;;;;1.29;100.00;100597.91;5045612;28;20071;-56
2022/04/04 04:30:46;;;;;;;17.02;9.18;;;;;;;1.35;100.00;100612.53;5046716;28;20039;-56
2022/04/04 04:33:12;;;;;;;13.88;8.40;;;;;;;1.42;100.00;100598.66;5048560;28;20024;-57
2022/04/04 04:35:37;;;;;;;22.17;9.40;;;;;;;1.28;100.00;100569.47;5046052;28;20924;-56
2022/04/04 04:38:03;;;;;;;15.43;8.82;;;;;;;1.52;100.00;100597.72;5045134;28;20094;-56
2022/04/04 04:40:28;;;;;;;16.40;9.43;;;;;;;1.51;100.00;100590.81;5047003;28;20139;-55
2022/04/04 04:42:54;;;;;;;16.77;9.05;;;;;;;1.52;100.00;100585.59;5047183;28;20026;-57
2022/04/04 04:45:20;;;;;;;11.55;8.50;;;;;;;1.58;100.00;100587.28;5047387;28;20035;-55
2022/04/04 04:47:48;;;;;;;15.35;8.73;;;;;;;1.28;100.00;100528.06;5045189;28;20230;-57
2022/04/04 04:50:15;;;;;;;14.90;8.45;;;;;;;1.58;100.00;100566.56;5044864;28;20056;-57
2022/04/04 04:52:41;;;;;;;16.80;8.80;;;;;;;1.60;100.00;100572.56;5044406;28;20028;-56
2022/04/04 04:55:07;;;;;;;14.52;9.43;;;;;;;1.66;100.00;100574.22;5046654;28;20153;-57
2022/04/04 04:57:33;;;;;;;16.48;9.32;;;;;;;1.70;100.00;100574.19;5045030;28;20032;-56
2022/04/04 04:59:59;;;;;;;18.15;9.70;;;;;;;1.73;100.00;100575.88;5046062;28;20051;-57
2022/04/04 05:02:25;;;;;;;17.25;9.25;;;;;;;1.72;100.00;100566.41;5045143;28;20165;-56
2022/04/04 05:04:50;;;;;;;13.40;8.98;;;;;;;1.80;100.00;100559.38;5045937;28;20039;-56
2022/04/04 05:07:16;;;;;;;13.73;8.25;;;;;;;1.75;100.00;100549.09;5045139;28;20114;-56
2022/04/04 05:09:41;;;;;;;17.70;9.52;;;;;;;1.75;100.00;100545.66;5045294;28;20027;-56
2022/04/04 05:12:07;;;;;;;16.45;8.98;;;;;;;1.72;100.00;100537.91;5044881;28;20032;-56
2022/04/04 05:14:33;;;;;;;18.48;9.07;;;;;;;1.77;100.00;100547.34;5045035;28;20032;-55
2022/04/04 05:16:58;;;;;;;16.38;9.70;;;;;;;1.81;100.00;100549.03;5046121;28;20027;-55
2022/04/04 05:19:24;;;;;;;20.45;10.13;;;;;;;1.75;100.00;100520.63;5046633;28;20032;-57
2022/04/04 05:21:50;;;;;;;13.48;8.95;;;;;;;1.84;100.00;100525.66;5044449;28;20040;-56
2022/04/04 05:24:16;;;;;;;13.90;9.75;;;;;;;1.92;100.00;100538.53;5027193;28;20923;-56
2022/04/04 05:26:41;;;;;;;13.85;10.10;;;;;;;1.91;100.00;100527.31;5046098;28;20836;-57
2022/04/04 05:29:07;;;;;;;13.27;8.77;;;;;;;1.81;100.00;100510.16;5046156;28;20043;-56
2022/04/04 05:31:34;;;;;;;17.63;10.85;;;;;;;1.96;100.00;100519.47;5045354;28;20899;-58
2022/04/04 05:34:01;;;;;;;18.15;10.30;;;;;;;1.74;100.00;100487.81;5046786;28;20035;-56
2022/04/04 05:36:27;;;;;;;15.35;9.15;;;;;;;1.87;100.00;100502.31;5039054;28;20456;-56
2022/04/04 05:38:53;;;;;;;19.25;9.95;;;;;;;2.04;100.00;100513.31;5026568;28;20033;-55
2022/04/04 05:41:18;;;;;;;14.93;9.73;;;;;;;1.75;100.00;100455.00;5026395;28;20028;-56
2022/04/04 05:43:44;;;;;;;16.70;9.02;;;;;;;1.94;100.00;100482.34;5027270;28;20052;-56
2022/04/04 05:46:11;;;;;;;13.57;9.30;;;;;;;2.17;100.00;100507.94;5027054;28;20036;-56
2022/04/04 05:48:37;;;;;;;13.10;8.98;;;;;;;2.14;100.00;100487.25;5026884;28;20087;-56
2022/04/04 05:51:03;;;;;;;18.15;9.85;;;;;;;2.22;100.00;100490.59;5008914;28;20888;-56
2022/04/04 05:53:28;;;;;;;13.75;8.85;;;;;;;2.23;100.00;100480.19;5027358;28;20561;-56
2022/04/04 05:55:54;;;;;;;15.52;9.55;;;;;;;2.35;100.00;100484.34;5025697;28;20036;-56
2022/04/04 05:58:19;;;;;;;16.30;9.20;;;;;;;2.34;100.00;100474.84;5045330;28;20032;-55
2022/04/04 06:00:45;;;;;;;11.27;9.07;;;;;;;2.42;100.00;100473.00;5072364;28;20025;-55
2022/04/04 06:03:10;;;;;;;16.42;9.30;;;;;;;2.20;100.00;100430.16;5071884;28;20067;-54
2022/04/04 06:05:35;;;;;;;12.27;8.80;;;;;;;2.56;100.00;100465.84;5053583;28;20028;-57
2022/04/04 06:08:01;;;;;;;16.23;9.82;;;;;;;2.53;100.00;100442.56;5026618;28;20035;-56
2022/04/04 06:10:27;;;;;;;16.27;8.98;;;;;;;2.74;100.00;100468.13;5026214;28;20968;-56
2022/04/04 06:12:53;;;;;;;12.73;8.55;;;;;;;2.84;100.00;100461.88;5025785;28;20028;-56
2022/04/04 06:15:19;;;;;;;13.98;9.13;;;;;;;2.88;100.00;100452.31;5025594;28;20041;-57
2022/04/04 06:17:44;;;;;;;14.75;8.15;;;;;;;2.99;100.00;100443.47;5024360;28;20028;-56
2022/04/04 06:20:10;;;;;;;9.77;7.80;;;;;;;3.03;100.00;100439.94;5040498;28;20115;-55
2022/04/04 06:22:37;;;;;;;13.65;8.75;;;;;;;3.22;100.00;100434.38;5036179;28;20932;-55
2022/04/04 06:25:04;;;;;;;11.32;7.47;;;;;;;3.15;100.00;100415.47;5079243;28;20062;-56
2022/04/04 06:27:30;;;;;;;15.00;8.32;;;;;;;3.31;100.00;100423.81;5091359;28;20035;-57
2022/04/04 06:29:56;;;;;;;12.57;7.80;;;;;;;3.35;100.00;100428.91;5090591;28;20032;-53
2022/04/04 06:32:24;;;;;;;14.50;8.57;;;;;;;3.35;100.00;100420.25;5084001;28;20070;-56
2022/04/04 06:34:50;;;;;;;15.23;7.50;;;;;;;3.42;100.00;100419.22;5066678;28;20033;-56
2022/04/04 06:37:16;;;;;;;9.32;7.93;;;;;;;3.41;100.00;100408.00;5073782;28;20028;-55
2022/04/04 06:39:41;;;;;;;11.98;7.82;;;;;;;3.42;100.00;100398.47;5076212;28;20028;-56
2022/04/04 06:42:07;;;;;;;11.55;7.75;;;;;;;3.52;100.00;100405.16;5094833;28;20473;-56
2022/04/04 06:44:32;;;;;;;11.57;7.63;;;;;;;3.59;100.00;100392.03;5094314;28;20111;-57
2022/04/04 06:46:58;;;;;;;11.82;7.82;;;;;;;3.63;100.00;100392.81;5076342;28;20056;-54
2022/04/04 06:49:23;;;;;;;12.63;8.00;;;;;;;3.67;100.00;100389.25;5094905;28;20063;-56
2022/04/04 06:51:51;;;;;;;11.18;7.68;;;;;;;3.74;100.00;100383.03;5084545;28;20028;-55
2022/04/04 06:54:18;;;;;;;9.93;7.32;;;;;;;3.77;100.00;100380.38;5081836;28;20047;-56
2022/04/04 06:56:45;;;;;;;12.73;7.72;;;;;;;3.75;100.00;100382.13;5079148;28;20059;-55
2022/04/04 06:59:10;;;;;;;11.57;7.57;;;;;;;3.83;100.00;100382.81;5073798;28;20040;-54
2022/04/04 07:01:36;;;;;;;11.40;7.45;;;;;;;3.93;100.00;100380.84;5073938;28;20020;-54
2022/04/04 07:04:03;;;;;;;11.55;7.38;;;;;;;4.03;100.00;100372.81;5092528;28;20054;-54
2022/04/04 07:06:28;;;;;;;10.60;7.35;;;;;;;4.11;100.00;100360.50;5093802;28;20024;-56
2022/04/04 07:08:53;;;;;;;12.68;7.15;;;;;;;4.26;100.00;100353.22;5094214;28;20126;-56
2022/04/04 07:11:19;;;;;;;17.85;8.05;;;;;;;4.38;100.00;100358.09;5083608;28;20037;-56
2022/04/04 07:13:48;;;;;;;10.00;7.22;;;;;;;4.27;100.00;100323.69;5088448;28;20032;-55
2022/04/04 07:16:14;;;;;;;16.95;6.43;;;;;;;4.47;100.00;100348.28;5075808;28;20036;-56
2022/04/04 07:18:39;;;;;;;9.25;7.28;;;;;;;4.49;100.00;100330.06;5080586;28;20028;-55
2022/04/04 07:21:05;;;;;;;21.60;7.20;;;;;;;4.26;100.00;100275.19;5055790;28;20171;-56
2022/04/04 07:23:30;;;;;;;16.00;6.95;;;;;;;4.69;100.00;100337.31;5046557;28;20024;-56
2022/04/04 07:25:55;;;;;;;8.88;6.18;;;;;;;4.62;100.00;100302.81;5047049;28;20835;-54
2022/04/04 07:28:22;;;;;;;16.98;7.13;;;;;;;4.91;100.00;100333.22;5048827;28;20074;-57
2022/04/04 07:30:49;;;;;;;8.90;6.38;;;;;;;5.02;100.00;100324.22;5048480;28;20105;-56
2022/04/04 07:33:17;;;;;;;10.15;6.65;;;;;;;4.95;100.00;100304.47;5043272;28;20055;-56
2022/04/04 07:35:42;;;;;;;14.93;6.47;;;;;;;5.08;100.00;100311.00;5041648;28;20521;-55
2022/04/04 07:38:09;;;;;;;18.83;7.20;;;;;;;5.21;100.00;100310.63;5040993;28;20028;-55
2022/04/04 07:40:35;;;;;;;12.07;6.75;;;;;;;5.24;100.00;100305.38;5047895;28;20047;-55
2022/04/04 07:43:00;;;;;;;11.73;6.60;;;;;;;5.34;100.00;100312.00;5046377;28;20028;-55
2022/04/04 07:45:27;;;;;;;10.75;6.70;;;;;;;5.22;100.00;100291.53;5047141;28;20032;-57
2022/04/04 07:47:53;;;;;;;8.55;6.55;;;;;;;4.92;100.00;100239.47;5047259;28;20040;-55
2022/04/04 07:50:19;;;;;;;9.02;6.13;;;;;;;5.22;100.00;100296.72;5048143;28;20035;-56
2022/04/04 07:52:44;;;;;;;10.55;6.88;;;;;;;5.01;100.00;100265.22;5045288;28;20036;-55
2022/04/04 07:55:09;;;;;;;12.27;7.15;;;;;;;5.20;100.00;100291.59;5033954;28;20115;-56
2022/04/04 07:57:35;;;;;;;9.57;6.85;;;;;;;5.02;100.00;100279.09;5043661;28;20773;-55
2022/04/04 08:00:01;;;;;;;10.20;7.28;;;;;;;5.06;100.00;100281.56;5045986;28;20177;-55
2022/04/04 08:02:26;;;;;;;10.00;6.47;;;;;;;5.14;100.00;100266.56;5046501;28;20869;-56
2022/04/04 08:04:52;;;;;;;16.98;7.75;;;;;;;5.27;100.00;100269.66;5046665;28;20035;-56
2022/04/04 08:07:19;;;;;;;16.52;7.95;;;;;;;5.40;100.00;100244.06;5047474;28;20105;-56
2022/04/04 08:09:46;;;;;;;13.95;7.25;;;;;;;5.49;100.00;100228.13;5046846;28;20040;-57
2022/04/04 08:12:11;;;;;;;10.20;6.70;;;;;;;5.74;100.00;100255.13;5045222;28;20020;-55
2022/04/04 08:14:37;;;;;;;20.17;7.60;;;;;;;5.86;100.00;100256.50;5042714;28;20066;-56
2022/04/04 08:17:03;;;;;;;11.15;7.10;;;;;;;5.98;100.00;100243.88;5035894;28;20029;-56
2022/04/04 08:19:30;;;;;;;14.45;7.05;;;;;;;6.20;100.00;100248.38;5045817;28;20135;-55
2022/04/04 08:21:55;;;;;;;18.92;6.55;;;;;;;6.50;100.00;100232.50;5045310;28;20250;-56
2022/04/04 08:24:22;;;;;;;16.98;7.32;;;;;;;6.60;100.00;100225.16;5046038;28;20027;-54
2022/04/04 08:26:48;;;;;;;11.45;7.38;;;;;;;6.74;100.00;100224.66;5046795;28;20039;-55
2022/04/04 08:29:14;;;;;;;10.27;6.68;;;;;;;6.98;100.00;100236.78;5046887;28;20035;-56
2022/04/04 08:31:39;;;;;;;11.02;7.30;;;;;;;7.10;100.00;100234.56;5046562;28;20133;-56
2022/04/04 08:34:05;;;;;;;13.13;7.72;;;;;;;7.02;100.00;100202.66;5045332;28;20163;-56
2022/04/04 08:36:31;;;;;;;22.45;8.23;;;;;;;7.08;100.00;100228.56;5046181;28;20123;-56
2022/04/04 08:38:56;;;;;;;28.10;7.57;;;;;;;7.20;100.00;100221.97;5046847;28;20036;-57
2022/04/04 08:41:22;;;;;;;14.95;7.53;;;;;;;6.97;100.00;100194.16;5047740;28;20031;-56
2022/04/04 08:43:49;;;;;;;11.43;7.25;;;;;;;7.15;100.00;100210.88;5046272;28;20032;-56
2022/04/04 08:46:15;;;;;;;17.13;8.30;;;;;;;7.22;100.00;100211.47;5027897;28;20241;-55
2022/04/04 08:48:41;;;;;;;19.40;7.43;;;;;;;7.14;100.00;100203.94;5045678;28;20545;-57
2022/04/04 08:51:07;;;;;;;21.13;8.18;;;;;;;7.17;100.00;100215.13;5045712;28;21027;-56
2022/04/04 08:53:34;;;;;;;24.08;8.13;;;;;;;7.36;100.00;100209.19;5044778;28;20031;-55
2022/04/04 08:56:00;;;;;;;16.35;8.63;;;;;;;7.29;100.00;100198.13;5043667;28;20020;-57
2022/04/04 08:58:25;;;;;;;9.73;7.88;;;;;;;7.25;100.00;100199.16;5028567;28;20127;-56
2022/04/04 09:00:51;;;;;;;19.65;8.60;;;;;;;7.20;100.00;100193.25;5047292;28;20042;-56
2022/04/04 09:03:26;;;;;;;12.68;7.60;;;;;;;7.08;100.00;100185.91;5046571;28;20078;-56
2022/04/04 09:05:56;;;;;;;12.57;7.65;;;;;;;6.94;100.00;100189.03;5044298;28;20127;-56
2022/04/04 09:08:23;;;;;;;10.85;8.07;;;;;;;6.74;100.00;100183.75;5046597;28;20031;-56
2022/04/04 09:10:50;;;;;;;16.70;8.82;;;;;;;6.37;100.00;100167.75;5045008;28;20031;-56
2022/04/04 09:13:18;;;;;;;13.02;8.18;;;;;;;6.24;100.00;100171.72;5044641;28;20031;-56
2022/04/04 09:15:52;;;;;;;17.38;8.43;;;;;;;5.84;100.00;100162.66;5026560;28;20026;-56
2022/04/04 09:18:19;;;;;;;15.45;8.60;;;;;;;5.56;100.00;100162.75;5046319;28;20082;-57
2022/04/04 09:20:53;;;;;;;13.40;8.43;;;;;;;5.40;100.00;100155.50;5045321;28;20042;-57
2022/04/04 09:23:18;;;;;;;;;;;;;;;5.31;100.00;100164.44;5047073;28;20024;-56
2022/04/04 09:25:44;;;;;;;14.98;9.07;;;;;;;5.04;100.00;100116.72;5046493;28;19977;-57
2022/04/04 09:28:15;;;;;;;14.40;8.27;;;;;;;5.29;100.00;100158.44;5045347;28;20202;-56
2022/04/04 09:30:41;;;;;;;12.90;8.80;;;;;;;4.97;100.00;100120.41;5043527;28;20820;-56
2022/04/04 09:33:07;;;;;;;13.07;9.65;;;;;;;4.97;100.00;100151.66;5044743;28;20028;-56
2022/04/04 09:35:44;;;;;;;22.50;10.77;;;;;;;4.85;100.00;100152.06;5043298;28;20052;-55
2022/04/04 09:38:14;;;;;;;15.15;9.68;;;;;;;4.76;100.00;100156.69;5043427;28;20550;-57
2022/04/04 09:40:39;;;;;;;14.60;9.00;;;;;;;4.64;100.00;100147.50;5044735;28;20879;-56
2022/04/04 09:43:05;;;;;;;13.50;10.75;;;;;;;4.55;100.00;100133.03;5044921;28;20086;-57
2022/04/04 09:45:30;;;;;;;17.77;11.30;;;;;;;4.61;100.00;100132.84;5045987;28;20475;-56
2022/04/04 09:48:03;;;;;;;14.02;11.18;;;;;;;4.70;100.00;100133.47;5045548;28;20970;-57
2022/04/04 09:50:30;;;;;;;15.45;11.45;;;;;;;4.70;100.00;100131.69;5044406;28;20052;-57
2022/04/04 09:52:57;;;;;;;14.52;10.75;;;;;;;4.74;100.00;100125.50;5044821;28;20028;-58
2022/04/04 09:56:00;;;;;;;14.43;11.05;;;;;;;4.80;100.00;100117.50;5041861;28;20031;-57
2022/04/04 09:58:30;;;;;;;16.05;11.48;;;;;;;4.69;100.00;100092.72;5008366;28;20040;-58
2022/04/04 10:00:58;;;;;;;14.88;9.27;;;;;;;4.88;100.00;100115.50;5044334;28;20072;-57
2022/04/04 10:03:24;;;;;;;12.70;9.63;;;;;;;4.85;100.00;100131.22;5045001;28;20604;-58
2022/04/04 10:05:55;;;;;;;14.00;9.25;;;;;;;4.79;100.00;100112.34;5036969;28;20028;-58
2022/04/04 10:08:23;;;;;;;14.05;10.25;;;;;;;4.83;100.00;100101.81;5048246;28;20035;-57
2022/04/04 10:10:49;;;;;;;14.70;9.90;;;;;;;4.72;100.00;100077.88;5048113;28;20032;-58
2022/04/04 10:13:15;;;;;;;14.73;9.48;;;;;;;4.75;100.00;100108.13;5047723;28;20031;-58
2022/04/04 10:15:41;;;;;;;11.95;10.02;;;;;;;4.68;100.00;100106.63;5030327;28;20086;-58
2022/04/04 10:18:07;;;;;;;16.27;10.90;;;;;;;4.64;100.00;100098.91;5053700;28;20272;-58
2022/04/04 10:20:33;;;;;;;18.27;10.43;;;;;;;4.62;100.00;100092.06;5048928;28;20031;-58
2022/04/04 10:22:58;;;;;;;14.35;10.52;;;;;;;4.57;100.00;100089.59;5048676;28;20040;-61
2022/04/04 10:25:27;;;;;;;16.10;10.80;;;;;;;4.51;100.00;100109.75;5048059;28;20089;-58
2022/04/04 10:27:53;;;;;;;14.63;12.55;;;;;;;4.47;100.00;100095.13;5048007;28;20889;-58
2022/04/04 10:30:42;;;;;;;19.30;12.57;;;;;;;4.36;100.00;100099.81;5050095;28;20109;-58
2022/04/04 10:33:23;;;;;;;15.75;11.88;;;;;;;4.32;100.00;100087.78;5042432;28;20371;-59
2022/04/04 10:36:04;;;;;;;22.83;13.53;;;;;;;4.29;100.00;100104.31;5045143;28;20118;-59
2022/04/04 10:38:46;;;;;;;16.20;12.65;;;;;;;4.25;100.00;100087.13;5033552;28;21057;-59
2022/04/04 10:41:18;;;;;;;17.10;13.93;;;;;;;4.28;100.00;100078.38;5047332;28;20595;-59
2022/04/04 10:43:48;;;;;;;18.08;13.68;;;;;;;4.27;100.00;100079.25;5047798;28;20102;-59
2022/04/04 10:46:17;;;;;;;18.05;14.00;;;;;;;4.22;100.00;100073.34;5047446;28;20086;-59
2022/04/04 10:48:47;;;;;;;20.30;15.25;;;;;;;4.24;100.00;100074.16;5046455;28;20039;-60
2022/04/04 10:51:17;;;;;;;15.68;12.38;;;;;;;4.20;100.00;100072.53;5044862;28;20030;-59
2022/04/04 10:53:51;;;;;;;18.88;12.80;;;;;;;4.07;100.00;100052.09;5042183;28;20031;-58
2022/04/04 10:56:23;;;;;;;14.47;12.93;;;;;;;4.03;100.00;100055.69;5048210;28;20027;-59
2022/04/04 10:58:53;;;;;;;18.65;13.57;;;;;;;4.00;100.00;100055.78;5047790;28;20460;-60
2022/04/04 11:01:20;;;;;;;15.77;12.38;;;;;;;3.87;100.00;100037.97;5054190;28;20100;-60
2022/04/04 11:03:52;;;;;;;15.18;12.80;;;;;;;3.94;100.00;100060.31;5051366;28;20028;-60
2022/04/04 11:09:15;;;;;;;20.80;13.60;;;;;;;3.95;100.00;100057.69;5058507;28;20102;-60
2022/04/04 11:12:00;;;;;;;20.83;12.52;;;;;;;3.98;100.00;100047.19;5047099;28;20043;-61
2022/04/04 11:14:29;;;;;;;16.60;12.40;;;;;;;3.89;100.00;100042.22;5043437;28;20012;-61
2022/04/04 11:17:06;;;;;;;16.80;13.05;;;;;;;3.89;100.00;100026.63;5046562;28;20103;-61
2022/04/04 11:19:53;;;;;;;14.82;11.90;;;;;;;3.71;100.00;100021.13;5048264;28;20458;-60